TAF Text Data
IDs:
Format:
Raw Decoded Include METAR

Data at: 1420 UTC 10 Jul 2020

KMSL 101120Z 1012/1112 28003KT P6SM FEW050
  FM110000 31008KT P6SM SKC